sensor_id;sensor_type;location;lat;lon;timestamp;temperature;humidity
2973;DHT22;1496;51.404;7.232;2023-12-14T00:01:16;7.60;99.90
2973;DHT22;1496;51.404;7.232;2023-12-14T00:03:42;7.60;99.90
2973;DHT22;1496;51.404;7.232;2023-12-14T00:06:10;7.50;99.90
2973;DHT22;1496;51.404;7.232;2023-12-14T00:08:36;7.50;99.90
2973;DHT22;1496;51.404;7.232;2023-12-14T00:11:08;7.40;99.90
2973;DHT22;1496;51.404;7.232;2023-12-14T00:13:34;7.50;99.90
2973;DHT22;1496;51.404;7.232;2023-12-14T00:16:00;7.40;99.90
2973;DHT22;1496;51.404;7.232;2023-12-14T00:18:26;7.40;99.90
2973;DHT22;1496;51.404;7.232;2023-12-14T00:20:52;7.40;99.90
2973;DHT22;1496;51.404;7.232;2023-12-14T00:23:20;7.40;99.90
2973;DHT22;1496;51.404;7.232;2023-12-14T00:25:45;7.50;99.90
2973;DHT22;1496;51.404;7.232;2023-12-14T00:28:12;7.40;99.90
2973;DHT22;1496;51.404;7.232;2023-12-14T00:30:37;7.40;99.90
2973;DHT22;1496;51.404;7.232;2023-12-14T00:33:03;7.50;99.90
2973;DHT22;1496;51.404;7.232;2023-12-14T00:35:30;7.50;99.90
2973;DHT22;1496;51.404;7.232;2023-12-14T00:37:56;7.50;99.90
2973;DHT22;1496;51.404;7.232;2023-12-14T00:40:22;7.50;99.90
2973;DHT22;1496;51.404;7.232;2023-12-14T00:42:48;7.50;99.90
2973;DHT22;1496;51.404;7.232;2023-12-14T00:45:14;7.40;99.90
2973;DHT22;1496;51.404;7.232;2023-12-14T00:47:39;7.40;99.90
2973;DHT22;1496;51.404;7.232;2023-12-14T00:50:06;7.50;99.90
2973;DHT22;1496;51.404;7.232;2023-12-14T00:52:32;7.40;99.90
2973;DHT22;1496;51.404;7.232;2023-12-14T00:54:58;7.40;99.90
2973;DHT22;1496;51.404;7.232;2023-12-14T00:57:24;7.40;99.90
2973;DHT22;1496;51.404;7.232;2023-12-14T00:59:50;7.30;99.90
2973;DHT22;1496;51.404;7.232;2023-12-14T01:02:15;7.30;99.90
2973;DHT22;1496;51.404;7.232;2023-12-14T01:04:41;7.40;99.90
2973;DHT22;1496;51.404;7.232;2023-12-14T01:07:08;7.40;99.90
2973;DHT22;1496;51.404;7.232;2023-12-14T01:09:34;7.40;99.90
2973;DHT22;1496;51.404;7.232;2023-12-14T01:11:59;7.50;99.90
2973;DHT22;1496;51.404;7.232;2023-12-14T01:14:25;7.50;99.90
2973;DHT22;1496;51.404;7.232;2023-12-14T01:16:51;7.40;99.90
2973;DHT22;1496;51.404;7.232;2023-12-14T01:19:16;7.30;99.90
2973;DHT22;1496;51.404;7.232;2023-12-14T01:21:42;7.30;99.90
2973;DHT22;1496;51.404;7.232;2023-12-14T01:24:08;7.20;99.90
2973;DHT22;1496;51.404;7.232;2023-12-14T01:26:34;7.20;99.90
2973;DHT22;1496;51.404;7.232;2023-12-14T01:29:00;7.20;99.90
2973;DHT22;1496;51.404;7.232;2023-12-14T01:31:25;7.10;99.90
2973;DHT22;1496;51.404;7.232;2023-12-14T01:33:51;7.10;99.90
2973;DHT22;1496;51.404;7.232;2023-12-14T01:36:24;7.00;99.90
2973;DHT22;1496;51.404;7.232;2023-12-14T01:38:51;7.00;99.90
2973;DHT22;1496;51.404;7.232;2023-12-14T01:41:17;7.00;99.90
2973;DHT22;1496;51.404;7.232;2023-12-14T01:43:43;7.00;99.90
2973;DHT22;1496;51.404;7.232;2023-12-14T01:46:09;7.00;99.90
2973;DHT22;1496;51.404;7.232;2023-12-14T01:48:35;7.00;99.90
2973;DHT22;1496;51.404;7.232;2023-12-14T01:51:00;7.10;99.90
2973;DHT22;1496;51.404;7.232;2023-12-14T01:53:26;6.90;99.90
2973;DHT22;1496;51.404;7.232;2023-12-14T01:55:52;6.90;99.90
2973;DHT22;1496;51.404;7.232;2023-12-14T01:58:18;6.90;99.90
2973;DHT22;1496;51.404;7.232;2023-12-14T02:03:45;6.90;99.90
2973;DHT22;1496;51.404;7.232;2023-12-14T02:06:10;6.90;99.90
2973;DHT22;1496;51.404;7.232;2023-12-14T02:08:36;6.90;99.90
2973;DHT22;1496;51.404;7.232;2023-12-14T02:11:02;6.90;99.90
2973;DHT22;1496;51.404;7.232;2023-12-14T02:13:27;6.90;99.90
2973;DHT22;1496;51.404;7.232;2023-12-14T02:15:53;6.90;99.90
2973;DHT22;1496;51.404;7.232;2023-12-14T02:18:19;7.00;99.90
2973;DHT22;1496;51.404;7.232;2023-12-14T02:20:45;7.00;99.90
2973;DHT22;1496;51.404;7.232;2023-12-14T02:23:10;6.90;99.90
2973;DHT22;1496;51.404;7.232;2023-12-14T02:25:36;6.90;99.90
2973;DHT22;1496;51.404;7.232;2023-12-14T02:28:02;6.80;99.90
2973;DHT22;1496;51.404;7.232;2023-12-14T02:30:28;6.80;99.90
2973;DHT22;1496;51.404;7.232;2023-12-14T02:32:53;6.70;99.90
2973;DHT22;1496;51.404;7.232;2023-12-14T02:35:19;6.70;99.90
2973;DHT22;1496;51.404;7.232;2023-12-14T02:37:45;6.70;99.90
2973;DHT22;1496;51.404;7.232;2023-12-14T02:40:11;6.60;99.90
2973;DHT22;1496;51.404;7.232;2023-12-14T02:42:36;6.60;99.90
2973;DHT22;1496;51.404;7.232;2023-12-14T02:45:03;6.60;99.90
2973;DHT22;1496;51.404;7.232;2023-12-14T02:47:29;6.60;99.90
2973;DHT22;1496;51.404;7.232;2023-12-14T02:49:55;6.50;99.90
2973;DHT22;1496;51.404;7.232;2023-12-14T02:52:21;6.50;99.90
2973;DHT22;1496;51.404;7.232;2023-12-14T02:54:47;6.50;99.90
2973;DHT22;1496;51.404;7.232;2023-12-14T02:57:12;6.50;99.90
2973;DHT22;1496;51.404;7.232;2023-12-14T02:59:39;6.50;99.90
2973;DHT22;1496;51.404;7.232;2023-12-14T03:02:04;6.50;99.90
2973;DHT22;1496;51.404;7.232;2023-12-14T03:04:30;6.60;99.90
2973;DHT22;1496;51.404;7.232;2023-12-14T03:06:56;6.50;99.90
2973;DHT22;1496;51.404;7.232;2023-12-14T03:09:22;6.50;99.90
2973;DHT22;1496;51.404;7.232;2023-12-14T03:11:48;6.50;99.90
2973;DHT22;1496;51.404;7.232;2023-12-14T03:14:14;6.60;99.90
2973;DHT22;1496;51.404;7.232;2023-12-14T03:16:40;6.60;99.90
2973;DHT22;1496;51.404;7.232;2023-12-14T03:19:06;6.60;99.90
2973;DHT22;1496;51.404;7.232;2023-12-14T03:21:32;6.50;99.90
2973;DHT22;1496;51.404;7.232;2023-12-14T03:23:57;6.50;99.90
2973;DHT22;1496;51.404;7.232;2023-12-14T03:26:23;6.50;99.90
2973;DHT22;1496;51.404;7.232;2023-12-14T03:28:49;6.50;99.90
2973;DHT22;1496;51.404;7.232;2023-12-14T03:31:15;6.40;99.90
2973;DHT22;1496;51.404;7.232;2023-12-14T03:33:43;6.30;99.90
2973;DHT22;1496;51.404;7.232;2023-12-14T03:36:08;6.40;99.90
2973;DHT22;1496;51.404;7.232;2023-12-14T03:38:35;6.30;99.90
2973;DHT22;1496;51.404;7.232;2023-12-14T03:41:01;6.20;99.90
2973;DHT22;1496;51.404;7.232;2023-12-14T03:43:27;6.20;99.90
2973;DHT22;1496;51.404;7.232;2023-12-14T03:45:52;6.20;99.90
2973;DHT22;1496;51.404;7.232;2023-12-14T03:48:19;6.30;99.90
2973;DHT22;1496;51.404;7.232;2023-12-14T03:50:44;6.20;99.90
2973;DHT22;1496;51.404;7.232;2023-12-14T03:53:10;6.10;99.90
2973;DHT22;1496;51.404;7.232;2023-12-14T03:55:36;6.10;99.90
2973;DHT22;1496;51.404;7.232;2023-12-14T03:58:02;6.10;99.90
2973;DHT22;1496;51.404;7.232;2023-12-14T04:00:27;6.20;99.90
2973;DHT22;1496;51.404;7.232;2023-12-14T04:02:53;6.20;99.90
2973;DHT22;1496;51.404;7.232;2023-12-14T04:05:19;6.20;99.90
2973;DHT22;1496;51.404;7.232;2023-12-14T04:07:44;6.20;99.90
2973;DHT22;1496;51.404;7.232;2023-12-14T04:10:11;6.20;99.90
2973;DHT22;1496;51.404;7.232;2023-12-14T04:12:38;6.20;99.90
2973;DHT22;1496;51.404;7.232;2023-12-14T04:15:04;6.20;99.90
2973;DHT22;1496;51.404;7.232;2023-12-14T04:17:31;6.20;99.90
2973;DHT22;1496;51.404;7.232;2023-12-14T04:19:57;6.20;99.90
2973;DHT22;1496;51.404;7.232;2023-12-14T04:22:23;6.20;99.90
2973;DHT22;1496;51.404;7.232;2023-12-14T04:24:50;6.20;99.90
2973;DHT22;1496;51.404;7.232;2023-12-14T04:27:16;6.10;99.90
2973;DHT22;1496;51.404;7.232;2023-12-14T04:29:41;6.20;99.90
2973;DHT22;1496;51.404;7.232;2023-12-14T04:32:07;6.20;99.90
2973;DHT22;1496;51.404;7.232;2023-12-14T04:34:33;6.20;99.90
2973;DHT22;1496;51.404;7.232;2023-12-14T04:36:59;6.30;99.90
2973;DHT22;1496;51.404;7.232;2023-12-14T04:39:26;6.40;99.90
2973;DHT22;1496;51.404;7.232;2023-12-14T04:41:52;6.30;99.90
2973;DHT22;1496;51.404;7.232;2023-12-14T04:44:21;6.30;99.90
2973;DHT22;1496;51.404;7.232;2023-12-14T04:46:50;6.30;99.90
2973;DHT22;1496;51.404;7.232;2023-12-14T04:49:16;6.30;99.90
2973;DHT22;1496;51.404;7.232;2023-12-14T04:51:42;6.30;99.90
2973;DHT22;1496;51.404;7.232;2023-12-14T04:54:08;6.40;99.90
2973;DHT22;1496;51.404;7.232;2023-12-14T04:56:34;6.40;99.90
2973;DHT22;1496;51.404;7.232;2023-12-14T04:59:00;6.40;99.90
2973;DHT22;1496;51.404;7.232;2023-12-14T05:01:26;6.40;99.90
2973;DHT22;1496;51.404;7.232;2023-12-14T05:03:55;6.50;99.90
2973;DHT22;1496;51.404;7.232;2023-12-14T05:06:21;6.50;99.90
2973;DHT22;1496;51.404;7.232;2023-12-14T05:08:47;6.50;99.90
2973;DHT22;1496;51.404;7.232;2023-12-14T05:11:13;6.60;99.90
2973;DHT22;1496;51.404;7.232;2023-12-14T05:13:40;6.50;99.90
2973;DHT22;1496;51.404;7.232;2023-12-14T05:16:06;6.50;99.90
2973;DHT22;1496;51.404;7.232;2023-12-14T05:18:32;6.60;99.90
2973;DHT22;1496;51.404;7.232;2023-12-14T05:20:58;6.50;99.90
2973;DHT22;1496;51.404;7.232;2023-12-14T05:23:24;6.40;99.90
2973;DHT22;1496;51.404;7.232;2023-12-14T05:25:50;6.40;99.90
2973;DHT22;1496;51.404;7.232;2023-12-14T05:28:16;6.40;99.90
2973;DHT22;1496;51.404;7.232;2023-12-14T05:30:41;6.40;99.90
2973;DHT22;1496;51.404;7.232;2023-12-14T05:33:07;6.30;99.90
2973;DHT22;1496;51.404;7.232;2023-12-14T05:35:33;6.30;99.90
2973;DHT22;1496;51.404;7.232;2023-12-14T05:37:59;6.30;99.90
2973;DHT22;1496;51.404;7.232;2023-12-14T05:40:24;6.20;99.90
2973;DHT22;1496;51.404;7.232;2023-12-14T05:42:50;6.20;99.90
2973;DHT22;1496;51.404;7.232;2023-12-14T05:45:16;6.20;99.90
2973;DHT22;1496;51.404;7.232;2023-12-14T05:47:44;6.20;99.90
2973;DHT22;1496;51.404;7.232;2023-12-14T05:50:10;6.10;99.90
2973;DHT22;1496;51.404;7.232;2023-12-14T05:52:36;6.00;99.90
2973;DHT22;1496;51.404;7.232;2023-12-14T05:55:03;6.00;99.90
2973;DHT22;1496;51.404;7.232;2023-12-14T05:57:29;6.00;99.90
2973;DHT22;1496;51.404;7.232;2023-12-14T05:59:55;6.10;99.90
2973;DHT22;1496;51.404;7.232;2023-12-14T06:02:22;6.10;99.90
2973;DHT22;1496;51.404;7.232;2023-12-14T06:04:48;6.00;99.90
2973;DHT22;1496;51.404;7.232;2023-12-14T06:07:14;6.10;99.90
2973;DHT22;1496;51.404;7.232;2023-12-14T06:09:41;6.10;99.90
2973;DHT22;1496;51.404;7.232;2023-12-14T06:12:06;5.90;99.90
2973;DHT22;1496;51.404;7.232;2023-12-14T06:14:32;5.90;99.90
2973;DHT22;1496;51.404;7.232;2023-12-14T06:16:58;5.80;99.90
2973;DHT22;1496;51.404;7.232;2023-12-14T06:19:23;5.90;99.90
2973;DHT22;1496;51.404;7.232;2023-12-14T06:21:50;5.80;99.90
2973;DHT22;1496;51.404;7.232;2023-12-14T06:24:15;5.80;99.90
2973;DHT22;1496;51.404;7.232;2023-12-14T06:26:45;5.70;99.90
2973;DHT22;1496;51.404;7.232;2023-12-14T06:29:11;5.70;99.90
2973;DHT22;1496;51.404;7.232;2023-12-14T06:31:40;5.80;99.90
2973;DHT22;1496;51.404;7.232;2023-12-14T06:34:06;5.80;99.90
2973;DHT22;1496;51.404;7.232;2023-12-14T06:36:32;5.90;99.90
2973;DHT22;1496;51.404;7.232;2023-12-14T06:39:01;5.80;99.90
2973;DHT22;1496;51.404;7.232;2023-12-14T06:41:28;5.90;99.90
2973;DHT22;1496;51.404;7.232;2023-12-14T06:43:54;5.80;99.90
2973;DHT22;1496;51.404;7.232;2023-12-14T06:46:20;5.90;99.90
2973;DHT22;1496;51.404;7.232;2023-12-14T06:48:47;5.80;99.90
2973;DHT22;1496;51.404;7.232;2023-12-14T06:51:13;5.80;99.90
2973;DHT22;1496;51.404;7.232;2023-12-14T06:53:43;5.90;99.90
2973;DHT22;1496;51.404;7.232;2023-12-14T06:56:09;5.80;99.90
2973;DHT22;1496;51.404;7.232;2023-12-14T06:58:40;5.90;99.90
2973;DHT22;1496;51.404;7.232;2023-12-14T07:01:06;5.90;99.90
2973;DHT22;1496;51.404;7.232;2023-12-14T07:03:32;5.90;99.90
2973;DHT22;1496;51.404;7.232;2023-12-14T07:05:58;6.00;99.90
2973;DHT22;1496;51.404;7.232;2023-12-14T07:08:24;5.80;99.90
2973;DHT22;1496;51.404;7.232;2023-12-14T07:10:50;5.80;99.90
2973;DHT22;1496;51.404;7.232;2023-12-14T07:13:16;5.80;99.90
2973;DHT22;1496;51.404;7.232;2023-12-14T07:15:42;5.90;99.90
2973;DHT22;1496;51.404;7.232;2023-12-14T07:18:07;5.90;99.90
2973;DHT22;1496;51.404;7.232;2023-12-14T07:20:33;5.90;99.90
2973;DHT22;1496;51.404;7.232;2023-12-14T07:22:59;5.90;99.90
2973;DHT22;1496;51.404;7.232;2023-12-14T07:25:25;6.00;99.90
2973;DHT22;1496;51.404;7.232;2023-12-14T07:27:51;5.80;99.90
2973;DHT22;1496;51.404;7.232;2023-12-14T07:30:17;5.80;99.90
2973;DHT22;1496;51.404;7.232;2023-12-14T07:32:43;5.80;99.90
2973;DHT22;1496;51.404;7.232;2023-12-14T07:35:09;5.80;99.90
2973;DHT22;1496;51.404;7.232;2023-12-14T07:37:36;5.80;99.90
2973;DHT22;1496;51.404;7.232;2023-12-14T07:40:01;5.80;99.90
2973;DHT22;1496;51.404;7.232;2023-12-14T07:42:28;5.80;99.90
2973;DHT22;1496;51.404;7.232;2023-12-14T07:44:54;5.80;99.90
2973;DHT22;1496;51.404;7.232;2023-12-14T07:47:20;5.80;99.90
2973;DHT22;1496;51.404;7.232;2023-12-14T07:49:45;5.90;99.90
2973;DHT22;1496;51.404;7.232;2023-12-14T07:52:11;5.90;99.90
2973;DHT22;1496;51.404;7.232;2023-12-14T07:54:39;5.90;99.90
2973;DHT22;1496;51.404;7.232;2023-12-14T07:57:05;5.90;99.90
2973;DHT22;1496;51.404;7.232;2023-12-14T07:59:31;6.00;99.90
2973;DHT22;1496;51.404;7.232;2023-12-14T08:01:57;6.00;99.90
2973;DHT22;1496;51.404;7.232;2023-12-14T08:04:24;6.00;99.90
2973;DHT22;1496;51.404;7.232;2023-12-14T08:06:50;5.90;99.90
2973;DHT22;1496;51.404;7.232;2023-12-14T08:09:15;5.90;99.90
2973;DHT22;1496;51.404;7.232;2023-12-14T08:11:41;5.90;99.90
2973;DHT22;1496;51.404;7.232;2023-12-14T08:14:07;5.90;99.90
2973;DHT22;1496;51.404;7.232;2023-12-14T08:16:33;5.90;99.90
2973;DHT22;1496;51.404;7.232;2023-12-14T08:18:58;5.90;99.90
2973;DHT22;1496;51.404;7.232;2023-12-14T08:21:24;5.90;99.90
2973;DHT22;1496;51.404;7.232;2023-12-14T08:23:49;5.90;99.90
2973;DHT22;1496;51.404;7.232;2023-12-14T08:26:15;5.80;99.90
2973;DHT22;1496;51.404;7.232;2023-12-14T08:28:41;5.80;99.90
2973;DHT22;1496;51.404;7.232;2023-12-14T08:31:07;5.80;99.90
2973;DHT22;1496;51.404;7.232;2023-12-14T08:33:35;5.80;99.90
2973;DHT22;1496;51.404;7.232;2023-12-14T08:36:01;5.80;99.90
2973;DHT22;1496;51.404;7.232;2023-12-14T08:38:26;5.80;99.90
2973;DHT22;1496;51.404;7.232;2023-12-14T08:40:52;5.70;99.90
2973;DHT22;1496;51.404;7.232;2023-12-14T08:43:18;5.70;99.90
2973;DHT22;1496;51.404;7.232;2023-12-14T08:45:43;5.70;99.90
2973;DHT22;1496;51.404;7.232;2023-12-14T08:48:12;5.80;99.90
2973;DHT22;1496;51.404;7.232;2023-12-14T08:50:39;5.80;99.90
2973;DHT22;1496;51.404;7.232;2023-12-14T08:53:04;5.80;99.90
2973;DHT22;1496;51.404;7.232;2023-12-14T08:55:31;5.90;99.90
2973;DHT22;1496;51.404;7.232;2023-12-14T08:57:57;5.80;99.90
2973;DHT22;1496;51.404;7.232;2023-12-14T09:00:23;5.80;99.90
2973;DHT22;1496;51.404;7.232;2023-12-14T09:02:49;5.70;99.90
2973;DHT22;1496;51.404;7.232;2023-12-14T09:05:15;5.80;99.90
2973;DHT22;1496;51.404;7.232;2023-12-14T09:07:42;5.90;99.90
2973;DHT22;1496;51.404;7.232;2023-12-14T09:10:09;5.90;99.90
2973;DHT22;1496;51.404;7.232;2023-12-14T09:12:34;5.90;99.90
2973;DHT22;1496;51.404;7.232;2023-12-14T09:15:01;5.90;99.90
2973;DHT22;1496;51.404;7.232;2023-12-14T09:17:27;5.90;99.90
2973;DHT22;1496;51.404;7.232;2023-12-14T09:19:58;5.90;99.90
2973;DHT22;1496;51.404;7.232;2023-12-14T09:22:24;5.80;99.90
2973;DHT22;1496;51.404;7.232;2023-12-14T09:24:50;5.70;99.90
2973;DHT22;1496;51.404;7.232;2023-12-14T09:27:16;5.80;99.90
2973;DHT22;1496;51.404;7.232;2023-12-14T09:29:42;5.80;99.90
2973;DHT22;1496;51.404;7.232;2023-12-14T09:32:08;5.80;99.90
2973;DHT22;1496;51.404;7.232;2023-12-14T09:34:34;5.80;99.90
2973;DHT22;1496;51.404;7.232;2023-12-14T09:37:00;5.80;99.90
2973;DHT22;1496;51.404;7.232;2023-12-14T09:39:25;5.80;99.90
2973;DHT22;1496;51.404;7.232;2023-12-14T09:41:51;5.70;99.90
2973;DHT22;1496;51.404;7.232;2023-12-14T09:44:17;5.70;99.90
2973;DHT22;1496;51.404;7.232;2023-12-14T09:46:43;5.70;99.90
2973;DHT22;1496;51.404;7.232;2023-12-14T09:49:15;5.80;99.90
2973;DHT22;1496;51.404;7.232;2023-12-14T09:51:41;5.80;99.90
2973;DHT22;1496;51.404;7.232;2023-12-14T09:54:07;5.70;99.90
2973;DHT22;1496;51.404;7.232;2023-12-14T09:56:32;5.80;99.90
2973;DHT22;1496;51.404;7.232;2023-12-14T09:58:58;5.80;99.90
2973;DHT22;1496;51.404;7.232;2023-12-14T10:01:27;5.80;99.90
2973;DHT22;1496;51.404;7.232;2023-12-14T10:04:13;5.80;99.90
2973;DHT22;1496;51.404;7.232;2023-12-14T10:06:40;5.80;99.90
2973;DHT22;1496;51.404;7.232;2023-12-14T10:09:06;5.80;99.90
2973;DHT22;1496;51.404;7.232;2023-12-14T10:11:36;5.80;99.90
2973;DHT22;1496;51.404;7.232;2023-12-14T10:14:02;5.80;99.90
2973;DHT22;1496;51.404;7.232;2023-12-14T10:16:31;5.80;99.90
2973;DHT22;1496;51.404;7.232;2023-12-14T10:18:58;5.80;99.90
2973;DHT22;1496;51.404;7.232;2023-12-14T10:21:26;5.90;99.90
2973;DHT22;1496;51.404;7.232;2023-12-14T10:23:54;5.90;99.90
2973;DHT22;1496;51.404;7.232;2023-12-14T10:26:25;5.90;99.90
2973;DHT22;1496;51.404;7.232;2023-12-14T10:28:52;5.90;99.90
2973;DHT22;1496;51.404;7.232;2023-12-14T10:31:19;5.80;99.90
2973;DHT22;1496;51.404;7.232;2023-12-14T10:33:47;5.90;99.90
2973;DHT22;1496;51.404;7.232;2023-12-14T10:36:14;5.90;99.90
2973;DHT22;1496;51.404;7.232;2023-12-14T10:38:43;5.90;99.90
2973;DHT22;1496;51.404;7.232;2023-12-14T10:41:09;5.90;99.90
2973;DHT22;1496;51.404;7.232;2023-12-14T10:43:38;5.90;99.90
2973;DHT22;1496;51.404;7.232;2023-12-14T10:46:05;6.00;99.90
2973;DHT22;1496;51.404;7.232;2023-12-14T10:48:37;6.00;99.90
2973;DHT22;1496;51.404;7.232;2023-12-14T10:51:07;5.90;99.90
2973;DHT22;1496;51.404;7.232;2023-12-14T10:53:34;5.90;99.90
2973;DHT22;1496;51.404;7.232;2023-12-14T10:56:02;5.90;99.90
2973;DHT22;1496;51.404;7.232;2023-12-14T10:58:55;5.90;99.90
2973;DHT22;1496;51.404;7.232;2023-12-14T11:01:23;5.90;99.90
2973;DHT22;1496;51.404;7.232;2023-12-14T11:03:53;5.70;99.90
2973;DHT22;1496;51.404;7.232;2023-12-14T11:06:30;5.60;99.90
2973;DHT22;1496;51.404;7.232;2023-12-14T11:09:07;5.60;99.90
2973;DHT22;1496;51.404;7.232;2023-12-14T11:14:19;5.50;99.90
2973;DHT22;1496;51.404;7.232;2023-12-14T11:16:47;5.50;99.90
2973;DHT22;1496;51.404;7.232;2023-12-14T11:19:34;5.70;99.90
2973;DHT22;1496;51.404;7.232;2023-12-14T11:22:11;5.70;99.90
2973;DHT22;1496;51.404;7.232;2023-12-14T11:24:51;5.70;99.90
2973;DHT22;1496;51.404;7.232;2023-12-14T11:27:26;5.70;99.90
2973;DHT22;1496;51.404;7.232;2023-12-14T11:29:54;5.80;99.90
2973;DHT22;1496;51.404;7.232;2023-12-14T11:32:19;5.60;99.90
2973;DHT22;1496;51.404;7.232;2023-12-14T11:34:48;5.70;99.90
2973;DHT22;1496;51.404;7.232;2023-12-14T11:37:14;5.70;99.90
2973;DHT22;1496;51.404;7.232;2023-12-14T11:39:40;5.70;99.90
2973;DHT22;1496;51.404;7.232;2023-12-14T11:42:06;5.70;99.90
2973;DHT22;1496;51.404;7.232;2023-12-14T11:44:37;5.80;99.90
2973;DHT22;1496;51.404;7.232;2023-12-14T11:47:03;5.90;99.90
2973;DHT22;1496;51.404;7.232;2023-12-14T11:49:29;5.80;99.90
2973;DHT22;1496;51.404;7.232;2023-12-14T11:51:55;5.70;99.90
2973;DHT22;1496;51.404;7.232;2023-12-14T11:54:21;5.60;99.90
2973;DHT22;1496;51.404;7.232;2023-12-14T11:56:50;5.60;99.90
2973;DHT22;1496;51.404;7.232;2023-12-14T11:59:17;5.60;99.90
2973;DHT22;1496;51.404;7.232;2023-12-14T12:01:59;5.50;99.90
2973;DHT22;1496;51.404;7.232;2023-12-14T12:04:25;5.30;99.90
2973;DHT22;1496;51.404;7.232;2023-12-14T12:07:05;5.20;99.90
2973;DHT22;1496;51.404;7.232;2023-12-14T12:09:38;5.10;99.90
2973;DHT22;1496;51.404;7.232;2023-12-14T12:12:07;5.20;99.90
2973;DHT22;1496;51.404;7.232;2023-12-14T12:14:33;5.30;99.90
2973;DHT22;1496;51.404;7.232;2023-12-14T12:16:59;5.30;99.90
2973;DHT22;1496;51.404;7.232;2023-12-14T12:19:24;5.40;99.90
2973;DHT22;1496;51.404;7.232;2023-12-14T12:21:50;5.40;99.90
2973;DHT22;1496;51.404;7.232;2023-12-14T12:24:16;5.50;99.90
2973;DHT22;1496;51.404;7.232;2023-12-14T12:26:41;5.50;99.90
2973;DHT22;1496;51.404;7.232;2023-12-14T12:29:07;5.40;99.90
2973;DHT22;1496;51.404;7.232;2023-12-14T12:31:32;5.40;99.90
2973;DHT22;1496;51.404;7.232;2023-12-14T12:33:59;5.40;99.90
2973;DHT22;1496;51.404;7.232;2023-12-14T12:36:25;5.50;99.90
2973;DHT22;1496;51.404;7.232;2023-12-14T12:38:51;5.60;99.90
2973;DHT22;1496;51.404;7.232;2023-12-14T12:41:16;5.60;99.90
2973;DHT22;1496;51.404;7.232;2023-12-14T12:43:43;5.50;99.90
2973;DHT22;1496;51.404;7.232;2023-12-14T12:46:09;5.50;99.90
2973;DHT22;1496;51.404;7.232;2023-12-14T12:48:36;5.50;99.90
2973;DHT22;1496;51.404;7.232;2023-12-14T12:51:01;5.60;99.90
2973;DHT22;1496;51.404;7.232;2023-12-14T12:53:29;5.60;99.90
2973;DHT22;1496;51.404;7.232;2023-12-14T12:55:54;5.50;99.90
2973;DHT22;1496;51.404;7.232;2023-12-14T12:58:20;5.50;99.90
2973;DHT22;1496;51.404;7.232;2023-12-14T13:00:46;5.50;99.90
2973;DHT22;1496;51.404;7.232;2023-12-14T13:03:11;5.50;99.90
2973;DHT22;1496;51.404;7.232;2023-12-14T13:05:38;5.30;99.90
2973;DHT22;1496;51.404;7.232;2023-12-14T13:08:04;5.30;99.90
2973;DHT22;1496;51.404;7.232;2023-12-14T13:10:29;5.40;99.90
2973;DHT22;1496;51.404;7.232;2023-12-14T13:12:55;5.20;99.90
2973;DHT22;1496;51.404;7.232;2023-12-14T13:15:23;5.20;99.90
2973;DHT22;1496;51.404;7.232;2023-12-14T13:17:51;5.20;99.90
2973;DHT22;1496;51.404;7.232;2023-12-14T13:20:16;5.40;99.90
2973;DHT22;1496;51.404;7.232;2023-12-14T13:22:43;5.50;99.90
2973;DHT22;1496;51.404;7.232;2023-12-14T13:25:09;5.60;99.90
2973;DHT22;1496;51.404;7.232;2023-12-14T13:27:35;5.50;99.90
2973;DHT22;1496;51.404;7.232;2023-12-14T13:30:02;5.40;99.90
2973;DHT22;1496;51.404;7.232;2023-12-14T13:32:29;5.30;99.90
2973;DHT22;1496;51.404;7.232;2023-12-14T13:34:54;5.30;99.90
2973;DHT22;1496;51.404;7.232;2023-12-14T13:37:20;5.30;99.90
2973;DHT22;1496;51.404;7.232;2023-12-14T13:39:45;5.10;99.90
2973;DHT22;1496;51.404;7.232;2023-12-14T13:42:13;5.10;99.90
2973;DHT22;1496;51.404;7.232;2023-12-14T13:44:40;5.20;99.90
2973;DHT22;1496;51.404;7.232;2023-12-14T13:47:07;5.20;99.90
2973;DHT22;1496;51.404;7.232;2023-12-14T13:49:33;5.20;99.90
2973;DHT22;1496;51.404;7.232;2023-12-14T13:51:59;5.20;99.90
2973;DHT22;1496;51.404;7.232;2023-12-14T13:54:24;5.30;99.90
2973;DHT22;1496;51.404;7.232;2023-12-14T13:56:50;5.40;99.90
2973;DHT22;1496;51.404;7.232;2023-12-14T13:59:16;5.40;99.90
2973;DHT22;1496;51.404;7.232;2023-12-14T14:01:41;5.50;99.90
2973;DHT22;1496;51.404;7.232;2023-12-14T14:04:07;5.40;99.90
2973;DHT22;1496;51.404;7.232;2023-12-14T14:06:34;5.30;99.90
2973;DHT22;1496;51.404;7.232;2023-12-14T14:09:00;5.20;99.90
2973;DHT22;1496;51.404;7.232;2023-12-14T14:11:26;5.20;99.90
2973;DHT22;1496;51.404;7.232;2023-12-14T14:13:52;5.20;99.90
2973;DHT22;1496;51.404;7.232;2023-12-14T14:16:17;5.30;99.90
2973;DHT22;1496;51.404;7.232;2023-12-14T14:18:43;5.30;99.90
2973;DHT22;1496;51.404;7.232;2023-12-14T14:21:09;5.50;99.90
2973;DHT22;1496;51.404;7.232;2023-12-14T14:23:34;5.40;99.90
2973;DHT22;1496;51.404;7.232;2023-12-14T14:26:00;5.20;99.90
2973;DHT22;1496;51.404;7.232;2023-12-14T14:28:26;5.30;99.90
2973;DHT22;1496;51.404;7.232;2023-12-14T14:30:52;5.30;99.90
2973;DHT22;1496;51.404;7.232;2023-12-14T14:33:18;5.30;99.90
2973;DHT22;1496;51.404;7.232;2023-12-14T14:35:47;5.30;99.90
2973;DHT22;1496;51.404;7.232;2023-12-14T14:38:13;5.40;99.90
2973;DHT22;1496;51.404;7.232;2023-12-14T14:40:39;5.30;99.90
2973;DHT22;1496;51.404;7.232;2023-12-14T14:43:05;5.30;99.90
2973;DHT22;1496;51.404;7.232;2023-12-14T14:45:31;5.40;99.90
2973;DHT22;1496;51.404;7.232;2023-12-14T14:47:57;5.20;99.90
2973;DHT22;1496;51.404;7.232;2023-12-14T14:50:23;5.10;99.90
2973;DHT22;1496;51.404;7.232;2023-12-14T14:52:49;4.90;99.90
2973;DHT22;1496;51.404;7.232;2023-12-14T14:55:14;4.80;99.90
2973;DHT22;1496;51.404;7.232;2023-12-14T14:57:40;4.60;99.90
2973;DHT22;1496;51.404;7.232;2023-12-14T15:00:07;4.70;99.90
2973;DHT22;1496;51.404;7.232;2023-12-14T15:02:34;4.60;99.90
2973;DHT22;1496;51.404;7.232;2023-12-14T15:04:59;4.50;99.90
2973;DHT22;1496;51.404;7.232;2023-12-14T15:07:25;4.50;99.90
2973;DHT22;1496;51.404;7.232;2023-12-14T15:09:51;4.60;99.90
2973;DHT22;1496;51.404;7.232;2023-12-14T15:12:17;4.50;99.90
2973;DHT22;1496;51.404;7.232;2023-12-14T15:14:43;4.50;99.90
2973;DHT22;1496;51.404;7.232;2023-12-14T15:17:09;4.50;99.90
2973;DHT22;1496;51.404;7.232;2023-12-14T15:19:35;4.50;99.90
2973;DHT22;1496;51.404;7.232;2023-12-14T15:22:01;4.50;99.90
2973;DHT22;1496;51.404;7.232;2023-12-14T15:24:27;4.60;99.90
2973;DHT22;1496;51.404;7.232;2023-12-14T15:26:52;4.70;99.90
2973;DHT22;1496;51.404;7.232;2023-12-14T15:29:18;4.70;99.90
2973;DHT22;1496;51.404;7.232;2023-12-14T15:31:45;4.80;99.90
2973;DHT22;1496;51.404;7.232;2023-12-14T15:34:11;4.80;99.90
2973;DHT22;1496;51.404;7.232;2023-12-14T15:36:37;4.80;99.90
2973;DHT22;1496;51.404;7.232;2023-12-14T15:39:03;4.80;99.90
2973;DHT22;1496;51.404;7.232;2023-12-14T15:41:30;4.90;99.90
2973;DHT22;1496;51.404;7.232;2023-12-14T15:43:56;4.80;99.90
2973;DHT22;1496;51.404;7.232;2023-12-14T15:46:22;4.80;99.90
2973;DHT22;1496;51.404;7.232;2023-12-14T15:48:47;4.90;99.90
2973;DHT22;1496;51.404;7.232;2023-12-14T15:51:13;4.80;99.90
2973;DHT22;1496;51.404;7.232;2023-12-14T15:53:39;4.80;99.90
2973;DHT22;1496;51.404;7.232;2023-12-14T15:56:07;4.80;99.90
2973;DHT22;1496;51.404;7.232;2023-12-14T15:58:35;4.90;99.90
2973;DHT22;1496;51.404;7.232;2023-12-14T16:01:01;4.80;99.90
2973;DHT22;1496;51.404;7.232;2023-12-14T16:03:26;4.60;99.90
2973;DHT22;1496;51.404;7.232;2023-12-14T16:05:52;4.60;99.90
2973;DHT22;1496;51.404;7.232;2023-12-14T16:08:18;4.50;99.90
2973;DHT22;1496;51.404;7.232;2023-12-14T16:10:43;4.60;99.90
2973;DHT22;1496;51.404;7.232;2023-12-14T16:13:13;4.40;99.90
2973;DHT22;1496;51.404;7.232;2023-12-14T16:15:38;4.40;99.90
2973;DHT22;1496;51.404;7.232;2023-12-14T16:18:04;4.40;99.90